Hadley, Pennsylvania
Current Conditions -  °F | °C
As of 12:53 AM on Thursday 29 Jan 2015 (Local Time) from KGKJ Reporting Station
Clear Clear  
Wind Chill: 11°   Ceiling: Unl
Heat Index: 19°   Visibility: 10mi
Dew Point:   Wind: 6mph
Humidity: 57%   Direction: NA
Pressure: 30.17"   Gusts: NA
Location:  41.41°N, 80.23°W
Report Text: KGKJ 290553Z AUTO VRB05KT 10SM CLR M07/M14 A3017 RMK AO2 SLP240 T10721144 11067 21083 58022 TSNO
Loading
Personal Weather Stations






























Interactive Weather Map New forecast layout! Learn more

10-Day Weather Forecast

Advertisements
Track Severe Weather on mobile